sensor_id;sensor_type;location;lat;lon;timestamp;P1;durP1;ratioP1;P2;durP2;ratioP2
27365;SDS011;14837;57.148;-2.144;2024-02-21T00:00:22;2.40;;;0.80;;
27365;SDS011;14837;57.148;-2.144;2024-02-21T00:02:48;3.15;;;1.10;;
27365;SDS011;14837;57.148;-2.144;2024-02-21T00:05:15;2.55;;;1.00;;
27365;SDS011;14837;57.148;-2.144;2024-02-21T00:07:42;2.15;;;1.15;;
27365;SDS011;14837;57.148;-2.144;2024-02-21T00:10:09;3.70;;;1.35;;
27365;SDS011;14837;57.148;-2.144;2024-02-21T00:12:35;2.03;;;1.00;;
27365;SDS011;14837;57.148;-2.144;2024-02-21T00:15:02;4.00;;;1.33;;
27365;SDS011;14837;57.148;-2.144;2024-02-21T00:17:29;2.72;;;1.27;;
27365;SDS011;14837;57.148;-2.144;2024-02-21T00:19:55;1.08;;;0.75;;
27365;SDS011;14837;57.148;-2.144;2024-02-21T00:22:22;2.97;;;0.90;;
27365;SDS011;14837;57.148;-2.144;2024-02-21T00:24:49;1.42;;;1.00;;
27365;SDS011;14837;57.148;-2.144;2024-02-21T00:27:15;4.30;;;1.23;;
27365;SDS011;14837;57.148;-2.144;2024-02-21T00:29:42;1.80;;;0.98;;
27365;SDS011;14837;57.148;-2.144;2024-02-21T00:32:08;1.85;;;1.20;;
27365;SDS011;14837;57.148;-2.144;2024-02-21T00:34:34;1.60;;;1.00;;
27365;SDS011;14837;57.148;-2.144;2024-02-21T00:37:02;2.05;;;1.00;;
27365;SDS011;14837;57.148;-2.144;2024-02-21T00:39:29;1.35;;;0.80;;
27365;SDS011;14837;57.148;-2.144;2024-02-21T00:41:55;1.63;;;0.82;;
27365;SDS011;14837;57.148;-2.144;2024-02-21T00:44:22;2.60;;;1.25;;
27365;SDS011;14837;57.148;-2.144;2024-02-21T00:46:48;3.72;;;1.33;;
27365;SDS011;14837;57.148;-2.144;2024-02-21T00:49:15;2.25;;;1.38;;
27365;SDS011;14837;57.148;-2.144;2024-02-21T00:51:42;4.20;;;1.75;;
27365;SDS011;14837;57.148;-2.144;2024-02-21T00:54:08;1.92;;;1.10;;
27365;SDS011;14837;57.148;-2.144;2024-02-21T00:56:35;4.35;;;1.20;;
27365;SDS011;14837;57.148;-2.144;2024-02-21T00:59:02;3.33;;;1.08;;
27365;SDS011;14837;57.148;-2.144;2024-02-21T01:01:28;2.25;;;1.17;;
27365;SDS011;14837;57.148;-2.144;2024-02-21T01:03:55;4.00;;;1.92;;
27365;SDS011;14837;57.148;-2.144;2024-02-21T01:06:22;3.17;;;1.73;;
27365;SDS011;14837;57.148;-2.144;2024-02-21T01:08:50;7.55;;;1.85;;
27365;SDS011;14837;57.148;-2.144;2024-02-21T01:11:16;3.95;;;1.30;;
27365;SDS011;14837;57.148;-2.144;2024-02-21T01:13:43;2.90;;;1.92;;
27365;SDS011;14837;57.148;-2.144;2024-02-21T01:16:10;4.32;;;1.52;;
27365;SDS011;14837;57.148;-2.144;2024-02-21T01:18:37;2.00;;;1.25;;
27365;SDS011;14837;57.148;-2.144;2024-02-21T01:21:04;2.55;;;1.45;;
27365;SDS011;14837;57.148;-2.144;2024-02-21T01:23:34;3.75;;;1.17;;
27365;SDS011;14837;57.148;-2.144;2024-02-21T01:26:00;2.28;;;1.20;;
27365;SDS011;14837;57.148;-2.144;2024-02-21T01:28:27;4.10;;;1.05;;
27365;SDS011;14837;57.148;-2.144;2024-02-21T01:30:54;3.90;;;1.30;;
27365;SDS011;14837;57.148;-2.144;2024-02-21T01:33:20;4.70;;;1.60;;
27365;SDS011;14837;57.148;-2.144;2024-02-21T01:35:47;3.85;;;1.27;;
27365;SDS011;14837;57.148;-2.144;2024-02-21T01:38:14;4.78;;;2.03;;
27365;SDS011;14837;57.148;-2.144;2024-02-21T01:40:40;2.65;;;1.27;;
27365;SDS011;14837;57.148;-2.144;2024-02-21T01:43:17;4.38;;;1.63;;
27365;SDS011;14837;57.148;-2.144;2024-02-21T01:45:48;1.83;;;1.33;;
27365;SDS011;14837;57.148;-2.144;2024-02-21T01:48:15;2.53;;;1.45;;
27365;SDS011;14837;57.148;-2.144;2024-02-21T01:50:43;2.83;;;1.30;;
27365;SDS011;14837;57.148;-2.144;2024-02-21T01:53:10;3.47;;;1.80;;
27365;SDS011;14837;57.148;-2.144;2024-02-21T01:55:37;4.93;;;1.20;;
27365;SDS011;14837;57.148;-2.144;2024-02-21T01:58:05;2.15;;;1.27;;
27365;SDS011;14837;57.148;-2.144;2024-02-21T02:00:32;2.55;;;1.27;;
27365;SDS011;14837;57.148;-2.144;2024-02-21T02:02:58;1.92;;;1.27;;
27365;SDS011;14837;57.148;-2.144;2024-02-21T02:05:25;2.28;;;1.30;;
27365;SDS011;14837;57.148;-2.144;2024-02-21T02:07:53;5.85;;;1.90;;
27365;SDS011;14837;57.148;-2.144;2024-02-21T02:10:19;2.67;;;1.35;;
27365;SDS011;14837;57.148;-2.144;2024-02-21T02:12:46;4.57;;;2.38;;
27365;SDS011;14837;57.148;-2.144;2024-02-21T02:15:13;3.90;;;1.92;;
27365;SDS011;14837;57.148;-2.144;2024-02-21T02:17:39;4.07;;;1.60;;
27365;SDS011;14837;57.148;-2.144;2024-02-21T02:20:06;5.90;;;1.50;;
27365;SDS011;14837;57.148;-2.144;2024-02-21T02:22:33;3.80;;;1.60;;
27365;SDS011;14837;57.148;-2.144;2024-02-21T02:25:02;5.82;;;2.38;;
27365;SDS011;14837;57.148;-2.144;2024-02-21T02:27:29;3.47;;;1.50;;
27365;SDS011;14837;57.148;-2.144;2024-02-21T02:29:56;3.83;;;1.20;;
27365;SDS011;14837;57.148;-2.144;2024-02-21T02:32:22;4.25;;;2.22;;
27365;SDS011;14837;57.148;-2.144;2024-02-21T02:34:49;4.50;;;2.20;;
27365;SDS011;14837;57.148;-2.144;2024-02-21T02:37:15;2.70;;;1.48;;
27365;SDS011;14837;57.148;-2.144;2024-02-21T02:39:42;3.42;;;1.75;;
27365;SDS011;14837;57.148;-2.144;2024-02-21T02:42:09;4.63;;;1.60;;
27365;SDS011;14837;57.148;-2.144;2024-02-21T02:44:35;3.47;;;2.10;;
27365;SDS011;14837;57.148;-2.144;2024-02-21T02:47:02;2.17;;;1.38;;
27365;SDS011;14837;57.148;-2.144;2024-02-21T02:49:28;3.95;;;1.40;;
27365;SDS011;14837;57.148;-2.144;2024-02-21T02:51:55;2.13;;;1.40;;
27365;SDS011;14837;57.148;-2.144;2024-02-21T02:54:21;3.47;;;1.30;;
27365;SDS011;14837;57.148;-2.144;2024-02-21T02:56:49;4.97;;;1.55;;
27365;SDS011;14837;57.148;-2.144;2024-02-21T02:59:16;3.15;;;1.42;;
27365;SDS011;14837;57.148;-2.144;2024-02-21T03:01:42;3.28;;;1.48;;
27365;SDS011;14837;57.148;-2.144;2024-02-21T03:04:09;3.38;;;1.77;;
27365;SDS011;14837;57.148;-2.144;2024-02-21T03:06:35;2.53;;;1.13;;
27365;SDS011;14837;57.148;-2.144;2024-02-21T03:09:02;5.03;;;1.60;;
27365;SDS011;14837;57.148;-2.144;2024-02-21T03:11:35;2.90;;;1.47;;
27365;SDS011;14837;57.148;-2.144;2024-02-21T03:14:01;4.97;;;2.17;;
27365;SDS011;14837;57.148;-2.144;2024-02-21T03:16:28;8.98;;;1.60;;
27365;SDS011;14837;57.148;-2.144;2024-02-21T03:18:55;9.35;;;2.67;;
27365;SDS011;14837;57.148;-2.144;2024-02-21T03:21:21;3.88;;;1.65;;
27365;SDS011;14837;57.148;-2.144;2024-02-21T03:23:48;6.72;;;2.00;;
27365;SDS011;14837;57.148;-2.144;2024-02-21T03:26:14;4.20;;;1.92;;
27365;SDS011;14837;57.148;-2.144;2024-02-21T03:28:43;3.80;;;1.73;;
27365;SDS011;14837;57.148;-2.144;2024-02-21T03:31:12;5.18;;;1.90;;
27365;SDS011;14837;57.148;-2.144;2024-02-21T03:33:41;4.28;;;1.92;;
27365;SDS011;14837;57.148;-2.144;2024-02-21T03:36:14;4.80;;;2.03;;
27365;SDS011;14837;57.148;-2.144;2024-02-21T03:38:42;5.50;;;1.90;;
27365;SDS011;14837;57.148;-2.144;2024-02-21T03:41:08;3.80;;;1.30;;
27365;SDS011;14837;57.148;-2.144;2024-02-21T03:43:35;3.67;;;1.90;;
27365;SDS011;14837;57.148;-2.144;2024-02-21T03:46:01;4.25;;;2.08;;
27365;SDS011;14837;57.148;-2.144;2024-02-21T03:48:28;6.80;;;1.83;;
27365;SDS011;14837;57.148;-2.144;2024-02-21T03:50:54;3.08;;;1.67;;
27365;SDS011;14837;57.148;-2.144;2024-02-21T03:53:21;4.85;;;1.52;;
27365;SDS011;14837;57.148;-2.144;2024-02-21T03:55:47;6.80;;;1.77;;
27365;SDS011;14837;57.148;-2.144;2024-02-21T03:58:14;5.20;;;1.40;;
27365;SDS011;14837;57.148;-2.144;2024-02-21T04:00:40;9.43;;;2.28;;
27365;SDS011;14837;57.148;-2.144;2024-02-21T04:03:07;4.30;;;1.50;;
27365;SDS011;14837;57.148;-2.144;2024-02-21T04:05:34;5.13;;;1.73;;
27365;SDS011;14837;57.148;-2.144;2024-02-21T04:08:03;6.85;;;2.13;;
27365;SDS011;14837;57.148;-2.144;2024-02-21T04:10:29;3.95;;;1.55;;
27365;SDS011;14837;57.148;-2.144;2024-02-21T04:12:56;3.78;;;1.92;;
27365;SDS011;14837;57.148;-2.144;2024-02-21T04:15:22;6.85;;;2.92;;
27365;SDS011;14837;57.148;-2.144;2024-02-21T04:17:49;4.38;;;1.73;;
27365;SDS011;14837;57.148;-2.144;2024-02-21T04:20:17;3.30;;;1.52;;
27365;SDS011;14837;57.148;-2.144;2024-02-21T04:22:44;5.25;;;2.63;;
27365;SDS011;14837;57.148;-2.144;2024-02-21T04:25:11;6.88;;;1.80;;
27365;SDS011;14837;57.148;-2.144;2024-02-21T04:27:39;5.00;;;2.65;;
27365;SDS011;14837;57.148;-2.144;2024-02-21T04:30:06;6.47;;;1.90;;
27365;SDS011;14837;57.148;-2.144;2024-02-21T04:32:33;5.45;;;2.03;;
27365;SDS011;14837;57.148;-2.144;2024-02-21T04:35:00;3.75;;;1.70;;
27365;SDS011;14837;57.148;-2.144;2024-02-21T04:37:27;3.50;;;1.58;;
27365;SDS011;14837;57.148;-2.144;2024-02-21T04:39:54;5.95;;;1.65;;
27365;SDS011;14837;57.148;-2.144;2024-02-21T04:42:21;6.97;;;2.50;;
27365;SDS011;14837;57.148;-2.144;2024-02-21T04:44:47;6.20;;;2.35;;
27365;SDS011;14837;57.148;-2.144;2024-02-21T04:47:14;4.45;;;1.67;;
27365;SDS011;14837;57.148;-2.144;2024-02-21T04:49:43;5.88;;;2.33;;
27365;SDS011;14837;57.148;-2.144;2024-02-21T04:52:10;5.57;;;2.92;;
27365;SDS011;14837;57.148;-2.144;2024-02-21T04:54:37;7.15;;;2.10;;
27365;SDS011;14837;57.148;-2.144;2024-02-21T04:57:04;6.63;;;2.67;;
27365;SDS011;14837;57.148;-2.144;2024-02-21T04:59:30;7.55;;;2.38;;
27365;SDS011;14837;57.148;-2.144;2024-02-21T05:01:57;5.78;;;2.22;;
27365;SDS011;14837;57.148;-2.144;2024-02-21T05:04:25;4.55;;;1.75;;
27365;SDS011;14837;57.148;-2.144;2024-02-21T05:06:52;6.40;;;2.15;;
27365;SDS011;14837;57.148;-2.144;2024-02-21T05:09:18;3.45;;;1.95;;
27365;SDS011;14837;57.148;-2.144;2024-02-21T05:11:45;5.60;;;2.42;;
27365;SDS011;14837;57.148;-2.144;2024-02-21T05:14:15;3.85;;;2.78;;
27365;SDS011;14837;57.148;-2.144;2024-02-21T05:16:42;7.57;;;2.20;;
27365;SDS011;14837;57.148;-2.144;2024-02-21T05:19:08;3.50;;;1.70;;
27365;SDS011;14837;57.148;-2.144;2024-02-21T05:21:36;4.18;;;1.75;;
27365;SDS011;14837;57.148;-2.144;2024-02-21T05:24:03;7.72;;;2.55;;
27365;SDS011;14837;57.148;-2.144;2024-02-21T05:26:30;5.13;;;2.10;;
27365;SDS011;14837;57.148;-2.144;2024-02-21T05:28:56;5.10;;;2.10;;
27365;SDS011;14837;57.148;-2.144;2024-02-21T05:31:23;3.15;;;2.15;;
27365;SDS011;14837;57.148;-2.144;2024-02-21T05:33:50;4.70;;;1.58;;
27365;SDS011;14837;57.148;-2.144;2024-02-21T05:36:17;9.82;;;3.03;;
27365;SDS011;14837;57.148;-2.144;2024-02-21T05:38:43;4.38;;;2.08;;
27365;SDS011;14837;57.148;-2.144;2024-02-21T05:41:10;3.97;;;2.28;;
27365;SDS011;14837;57.148;-2.144;2024-02-21T05:43:38;7.68;;;2.17;;
27365;SDS011;14837;57.148;-2.144;2024-02-21T05:46:04;5.45;;;1.92;;
27365;SDS011;14837;57.148;-2.144;2024-02-21T05:48:31;9.65;;;2.67;;
27365;SDS011;14837;57.148;-2.144;2024-02-21T05:51:03;8.20;;;2.92;;
27365;SDS011;14837;57.148;-2.144;2024-02-21T05:53:30;4.43;;;1.92;;
27365;SDS011;14837;57.148;-2.144;2024-02-21T05:55:56;4.93;;;2.22;;
27365;SDS011;14837;57.148;-2.144;2024-02-21T05:58:23;5.32;;;2.58;;
27365;SDS011;14837;57.148;-2.144;2024-02-21T06:00:49;5.63;;;3.05;;
27365;SDS011;14837;57.148;-2.144;2024-02-21T06:03:16;5.88;;;2.15;;
27365;SDS011;14837;57.148;-2.144;2024-02-21T06:05:43;4.93;;;3.75;;
27365;SDS011;14837;57.148;-2.144;2024-02-21T06:08:11;9.27;;;2.88;;
27365;SDS011;14837;57.148;-2.144;2024-02-21T06:10:38;5.60;;;2.15;;
27365;SDS011;14837;57.148;-2.144;2024-02-21T06:13:05;10.07;;;2.60;;
27365;SDS011;14837;57.148;-2.144;2024-02-21T06:15:32;6.07;;;2.05;;
27365;SDS011;14837;57.148;-2.144;2024-02-21T06:17:59;6.32;;;3.08;;
27365;SDS011;14837;57.148;-2.144;2024-02-21T06:20:26;4.75;;;2.13;;
27365;SDS011;14837;57.148;-2.144;2024-02-21T06:22:53;6.28;;;2.28;;
27365;SDS011;14837;57.148;-2.144;2024-02-21T06:25:20;7.43;;;2.42;;
27365;SDS011;14837;57.148;-2.144;2024-02-21T06:27:47;4.70;;;2.80;;
27365;SDS011;14837;57.148;-2.144;2024-02-21T06:30:14;8.80;;;2.97;;
27365;SDS011;14837;57.148;-2.144;2024-02-21T06:32:42;6.15;;;2.35;;
27365;SDS011;14837;57.148;-2.144;2024-02-21T06:35:08;6.93;;;3.22;;
27365;SDS011;14837;57.148;-2.144;2024-02-21T06:37:35;9.55;;;2.90;;
27365;SDS011;14837;57.148;-2.144;2024-02-21T06:40:03;7.78;;;2.72;;
27365;SDS011;14837;57.148;-2.144;2024-02-21T06:42:30;6.20;;;2.47;;
27365;SDS011;14837;57.148;-2.144;2024-02-21T06:44:58;6.82;;;3.13;;
27365;SDS011;14837;57.148;-2.144;2024-02-21T06:47:25;4.30;;;2.47;;
27365;SDS011;14837;57.148;-2.144;2024-02-21T06:49:52;9.43;;;2.70;;
27365;SDS011;14837;57.148;-2.144;2024-02-21T06:52:19;7.05;;;2.72;;
27365;SDS011;14837;57.148;-2.144;2024-02-21T06:54:50;5.68;;;2.40;;
27365;SDS011;14837;57.148;-2.144;2024-02-21T06:57:16;10.25;;;3.13;;
27365;SDS011;14837;57.148;-2.144;2024-02-21T06:59:43;6.45;;;2.92;;
27365;SDS011;14837;57.148;-2.144;2024-02-21T07:02:09;7.95;;;2.67;;
27365;SDS011;14837;57.148;-2.144;2024-02-21T07:04:36;7.35;;;2.47;;
27365;SDS011;14837;57.148;-2.144;2024-02-21T07:07:03;5.93;;;2.90;;
27365;SDS011;14837;57.148;-2.144;2024-02-21T07:09:29;7.05;;;2.63;;
27365;SDS011;14837;57.148;-2.144;2024-02-21T07:11:58;5.57;;;2.22;;
27365;SDS011;14837;57.148;-2.144;2024-02-21T07:14:25;7.15;;;2.50;;
27365;SDS011;14837;57.148;-2.144;2024-02-21T07:16:52;5.93;;;2.42;;
27365;SDS011;14837;57.148;-2.144;2024-02-21T07:19:19;5.38;;;2.40;;
27365;SDS011;14837;57.148;-2.144;2024-02-21T07:21:46;8.52;;;2.42;;
27365;SDS011;14837;57.148;-2.144;2024-02-21T07:24:14;5.65;;;3.45;;
27365;SDS011;14837;57.148;-2.144;2024-02-21T07:26:41;7.55;;;3.10;;
27365;SDS011;14837;57.148;-2.144;2024-02-21T07:29:08;6.70;;;2.00;;
27365;SDS011;14837;57.148;-2.144;2024-02-21T07:31:41;7.78;;;3.33;;
27365;SDS011;14837;57.148;-2.144;2024-02-21T07:34:08;2.90;;;1.60;;
27365;SDS011;14837;57.148;-2.144;2024-02-21T07:36:35;8.77;;;2.67;;
27365;SDS011;14837;57.148;-2.144;2024-02-21T07:39:01;6.47;;;2.10;;
27365;SDS011;14837;57.148;-2.144;2024-02-21T07:41:28;7.72;;;2.65;;
27365;SDS011;14837;57.148;-2.144;2024-02-21T07:43:57;8.55;;;3.22;;
27365;SDS011;14837;57.148;-2.144;2024-02-21T07:46:24;8.60;;;2.95;;
27365;SDS011;14837;57.148;-2.144;2024-02-21T07:48:51;8.45;;;2.08;;
27365;SDS011;14837;57.148;-2.144;2024-02-21T07:51:17;5.82;;;1.88;;
27365;SDS011;14837;57.148;-2.144;2024-02-21T07:53:44;7.60;;;2.63;;
27365;SDS011;14837;57.148;-2.144;2024-02-21T07:56:12;9.10;;;2.88;;
27365;SDS011;14837;57.148;-2.144;2024-02-21T07:58:38;7.63;;;2.80;;
27365;SDS011;14837;57.148;-2.144;2024-02-21T08:01:05;8.35;;;4.05;;
27365;SDS011;14837;57.148;-2.144;2024-02-21T08:03:31;5.65;;;2.38;;
27365;SDS011;14837;57.148;-2.144;2024-02-21T08:05:58;9.52;;;2.28;;
27365;SDS011;14837;57.148;-2.144;2024-02-21T08:08:24;8.43;;;3.05;;
27365;SDS011;14837;57.148;-2.144;2024-02-21T08:10:51;9.18;;;2.85;;
27365;SDS011;14837;57.148;-2.144;2024-02-21T08:13:18;10.00;;;3.05;;
27365;SDS011;14837;57.148;-2.144;2024-02-21T08:15:44;10.82;;;4.03;;
27365;SDS011;14837;57.148;-2.144;2024-02-21T08:18:11;7.03;;;2.88;;
27365;SDS011;14837;57.148;-2.144;2024-02-21T08:20:38;9.13;;;2.60;;
27365;SDS011;14837;57.148;-2.144;2024-02-21T08:23:04;8.45;;;2.45;;
27365;SDS011;14837;57.148;-2.144;2024-02-21T08:25:31;7.07;;;3.70;;
27365;SDS011;14837;57.148;-2.144;2024-02-21T08:27:58;8.40;;;2.53;;
27365;SDS011;14837;57.148;-2.144;2024-02-21T08:30:25;11.05;;;2.88;;
27365;SDS011;14837;57.148;-2.144;2024-02-21T08:32:51;7.80;;;2.88;;
27365;SDS011;14837;57.148;-2.144;2024-02-21T08:35:18;6.63;;;2.60;;
27365;SDS011;14837;57.148;-2.144;2024-02-21T08:37:45;6.40;;;2.65;;
27365;SDS011;14837;57.148;-2.144;2024-02-21T08:40:14;6.57;;;2.35;;
27365;SDS011;14837;57.148;-2.144;2024-02-21T08:42:44;6.53;;;2.05;;
27365;SDS011;14837;57.148;-2.144;2024-02-21T08:45:10;7.25;;;2.92;;
27365;SDS011;14837;57.148;-2.144;2024-02-21T08:47:39;7.82;;;3.13;;
27365;SDS011;14837;57.148;-2.144;2024-02-21T08:50:06;8.40;;;2.65;;
27365;SDS011;14837;57.148;-2.144;2024-02-21T08:52:44;6.45;;;2.53;;
27365;SDS011;14837;57.148;-2.144;2024-02-21T08:55:11;8.02;;;2.13;;
27365;SDS011;14837;57.148;-2.144;2024-02-21T08:57:37;9.35;;;2.80;;
27365;SDS011;14837;57.148;-2.144;2024-02-21T09:00:04;5.32;;;2.50;;
27365;SDS011;14837;57.148;-2.144;2024-02-21T09:02:37;8.40;;;2.72;;
27365;SDS011;14837;57.148;-2.144;2024-02-21T09:05:04;4.47;;;2.35;;
27365;SDS011;14837;57.148;-2.144;2024-02-21T09:07:31;4.53;;;2.40;;
27365;SDS011;14837;57.148;-2.144;2024-02-21T09:09:58;5.38;;;2.58;;
27365;SDS011;14837;57.148;-2.144;2024-02-21T09:12:24;6.25;;;2.90;;
27365;SDS011;14837;57.148;-2.144;2024-02-21T09:14:51;5.28;;;3.15;;
27365;SDS011;14837;57.148;-2.144;2024-02-21T09:17:18;4.32;;;2.60;;
27365;SDS011;14837;57.148;-2.144;2024-02-21T09:19:47;6.30;;;2.95;;
27365;SDS011;14837;57.148;-2.144;2024-02-21T09:22:14;6.13;;;2.72;;
27365;SDS011;14837;57.148;-2.144;2024-02-21T09:24:40;6.97;;;3.03;;
27365;SDS011;14837;57.148;-2.144;2024-02-21T09:27:07;5.47;;;2.78;;
27365;SDS011;14837;57.148;-2.144;2024-02-21T09:29:33;6.05;;;2.75;;
27365;SDS011;14837;57.148;-2.144;2024-02-21T09:32:00;5.97;;;3.00;;
27365;SDS011;14837;57.148;-2.144;2024-02-21T09:34:29;5.38;;;3.08;;
27365;SDS011;14837;57.148;-2.144;2024-02-21T09:36:56;5.97;;;2.40;;
27365;SDS011;14837;57.148;-2.144;2024-02-21T09:39:23;5.50;;;2.90;;
27365;SDS011;14837;57.148;-2.144;2024-02-21T09:41:50;3.58;;;2.35;;
27365;SDS011;14837;57.148;-2.144;2024-02-21T09:44:23;6.00;;;1.98;;
27365;SDS011;14837;57.148;-2.144;2024-02-21T09:51:44;4.70;;;2.13;;
27365;SDS011;14837;57.148;-2.144;2024-02-21T09:54:11;5.07;;;2.05;;
27365;SDS011;14837;57.148;-2.144;2024-02-21T09:56:44;4.40;;;2.15;;
27365;SDS011;14837;57.148;-2.144;2024-02-21T09:59:11;7.72;;;2.28;;
27365;SDS011;14837;57.148;-2.144;2024-02-21T10:01:38;5.07;;;2.55;;
27365;SDS011;14837;57.148;-2.144;2024-02-21T10:04:04;4.25;;;2.63;;
27365;SDS011;14837;57.148;-2.144;2024-02-21T10:06:32;5.50;;;2.58;;
27365;SDS011;14837;57.148;-2.144;2024-02-21T10:08:59;4.50;;;2.92;;
27365;SDS011;14837;57.148;-2.144;2024-02-21T10:11:26;6.82;;;3.08;;
27365;SDS011;14837;57.148;-2.144;2024-02-21T10:14:05;3.50;;;2.35;;
27365;SDS011;14837;57.148;-2.144;2024-02-21T10:16:33;4.63;;;2.38;;
27365;SDS011;14837;57.148;-2.144;2024-02-21T10:19:00;2.80;;;2.03;;
27365;SDS011;14837;57.148;-2.144;2024-02-21T10:21:27;7.43;;;2.13;;
27365;SDS011;14837;57.148;-2.144;2024-02-21T10:23:53;4.32;;;2.15;;
27365;SDS011;14837;57.148;-2.144;2024-02-21T10:26:20;6.18;;;2.88;;
27365;SDS011;14837;57.148;-2.144;2024-02-21T10:28:47;6.57;;;2.63;;
27365;SDS011;14837;57.148;-2.144;2024-02-21T10:31:22;4.88;;;2.35;;
27365;SDS011;14837;57.148;-2.144;2024-02-21T10:34:01;4.93;;;2.33;;
27365;SDS011;14837;57.148;-2.144;2024-02-21T10:36:32;5.40;;;3.50;;
27365;SDS011;14837;57.148;-2.144;2024-02-21T10:38:58;4.95;;;2.33;;
27365;SDS011;14837;57.148;-2.144;2024-02-21T10:41:25;6.47;;;2.08;;
27365;SDS011;14837;57.148;-2.144;2024-02-21T10:43:54;3.88;;;1.77;;
27365;SDS011;14837;57.148;-2.144;2024-02-21T10:46:22;5.13;;;1.95;;
27365;SDS011;14837;57.148;-2.144;2024-02-21T10:51:49;3.97;;;1.92;;
27365;SDS011;14837;57.148;-2.144;2024-02-21T10:56:43;6.28;;;2.20;;
27365;SDS011;14837;57.148;-2.144;2024-02-21T10:59:10;4.70;;;1.80;;
27365;SDS011;14837;57.148;-2.144;2024-02-21T11:01:37;3.90;;;2.45;;
27365;SDS011;14837;57.148;-2.144;2024-02-21T11:06:30;4.03;;;2.10;;
27365;SDS011;14837;57.148;-2.144;2024-02-21T11:11:27;4.55;;;2.20;;
27365;SDS011;14837;57.148;-2.144;2024-02-21T11:14:05;4.22;;;2.30;;
27365;SDS011;14837;57.148;-2.144;2024-02-21T11:16:39;4.85;;;2.35;;
27365;SDS011;14837;57.148;-2.144;2024-02-21T11:21:36;4.50;;;2.70;;
27365;SDS011;14837;57.148;-2.144;2024-02-21T11:24:03;6.22;;;3.17;;
27365;SDS011;14837;57.148;-2.144;2024-02-21T11:26:30;7.47;;;2.50;;
27365;SDS011;14837;57.148;-2.144;2024-02-21T11:28:58;5.97;;;3.83;;
27365;SDS011;14837;57.148;-2.144;2024-02-21T11:31:26;6.78;;;3.08;;
27365;SDS011;14837;57.148;-2.144;2024-02-21T11:33:55;6.38;;;3.03;;
27365;SDS011;14837;57.148;-2.144;2024-02-21T11:36:24;11.23;;;3.20;;
27365;SDS011;14837;57.148;-2.144;2024-02-21T11:38:51;6.78;;;2.88;;
27365;SDS011;14837;57.148;-2.144;2024-02-21T11:41:18;5.32;;;3.20;;
27365;SDS011;14837;57.148;-2.144;2024-02-21T11:43:45;6.80;;;3.40;;
27365;SDS011;14837;57.148;-2.144;2024-02-21T11:46:12;5.30;;;3.25;;
27365;SDS011;14837;57.148;-2.144;2024-02-21T11:48:40;7.25;;;3.10;;
27365;SDS011;14837;57.148;-2.144;2024-02-21T11:51:07;6.40;;;2.97;;
27365;SDS011;14837;57.148;-2.144;2024-02-21T11:53:34;12.95;;;3.92;;
27365;SDS011;14837;57.148;-2.144;2024-02-21T11:56:09;8.75;;;3.38;;
27365;SDS011;14837;57.148;-2.144;2024-02-21T11:58:35;10.65;;;4.22;;
27365;SDS011;14837;57.148;-2.144;2024-02-21T12:01:02;9.52;;;3.67;;
27365;SDS011;14837;57.148;-2.144;2024-02-21T12:03:30;7.25;;;3.60;;
27365;SDS011;14837;57.148;-2.144;2024-02-21T12:05:57;10.93;;;3.28;;
27365;SDS011;14837;57.148;-2.144;2024-02-21T12:08:25;7.97;;;3.30;;
27365;SDS011;14837;57.148;-2.144;2024-02-21T12:10:52;7.03;;;3.03;;
27365;SDS011;14837;57.148;-2.144;2024-02-21T12:13:18;7.70;;;3.58;;
27365;SDS011;14837;57.148;-2.144;2024-02-21T12:15:48;7.63;;;3.25;;
27365;SDS011;14837;57.148;-2.144;2024-02-21T12:18:15;9.25;;;3.35;;
27365;SDS011;14837;57.148;-2.144;2024-02-21T12:20:42;6.82;;;3.28;;
27365;SDS011;14837;57.148;-2.144;2024-02-21T12:23:09;6.63;;;3.22;;
27365;SDS011;14837;57.148;-2.144;2024-02-21T12:25:36;8.60;;;3.28;;
27365;SDS011;14837;57.148;-2.144;2024-02-21T12:28:03;12.30;;;4.90;;
27365;SDS011;14837;57.148;-2.144;2024-02-21T12:30:30;6.60;;;3.38;;
27365;SDS011;14837;57.148;-2.144;2024-02-21T12:32:59;7.95;;;3.63;;
27365;SDS011;14837;57.148;-2.144;2024-02-21T12:35:28;6.20;;;3.28;;
27365;SDS011;14837;57.148;-2.144;2024-02-21T12:37:54;11.48;;;3.17;;
27365;SDS011;14837;57.148;-2.144;2024-02-21T12:40:21;9.48;;;2.95;;
27365;SDS011;14837;57.148;-2.144;2024-02-21T12:42:47;7.80;;;3.67;;
27365;SDS011;14837;57.148;-2.144;2024-02-21T12:45:14;7.97;;;3.30;;
27365;SDS011;14837;57.148;-2.144;2024-02-21T12:47:42;8.43;;;3.33;;
27365;SDS011;14837;57.148;-2.144;2024-02-21T12:50:09;7.85;;;2.70;;
27365;SDS011;14837;57.148;-2.144;2024-02-21T12:52:36;9.90;;;3.25;;
27365;SDS011;14837;57.148;-2.144;2024-02-21T12:55:02;6.22;;;3.13;;
27365;SDS011;14837;57.148;-2.144;2024-02-21T12:57:29;5.25;;;2.60;;
27365;SDS011;14837;57.148;-2.144;2024-02-21T12:59:55;8.43;;;3.13;;
27365;SDS011;14837;57.148;-2.144;2024-02-21T13:02:22;9.15;;;3.22;;
27365;SDS011;14837;57.148;-2.144;2024-02-21T13:04:49;8.18;;;3.67;;
27365;SDS011;14837;57.148;-2.144;2024-02-21T13:07:16;7.03;;;3.33;;
27365;SDS011;14837;57.148;-2.144;2024-02-21T13:09:42;4.22;;;2.50;;
27365;SDS011;14837;57.148;-2.144;2024-02-21T13:12:09;9.32;;;3.63;;
27365;SDS011;14837;57.148;-2.144;2024-02-21T13:14:36;8.32;;;2.95;;
27365;SDS011;14837;57.148;-2.144;2024-02-21T13:17:05;9.20;;;4.20;;
27365;SDS011;14837;57.148;-2.144;2024-02-21T13:19:32;6.85;;;2.65;;
27365;SDS011;14837;57.148;-2.144;2024-02-21T13:21:59;8.13;;;2.70;;
27365;SDS011;14837;57.148;-2.144;2024-02-21T13:24:25;8.38;;;3.20;;
27365;SDS011;14837;57.148;-2.144;2024-02-21T13:26:52;6.40;;;2.63;;
27365;SDS011;14837;57.148;-2.144;2024-02-21T13:29:18;8.73;;;2.75;;
27365;SDS011;14837;57.148;-2.144;2024-02-21T13:31:46;3.28;;;1.85;;
27365;SDS011;14837;57.148;-2.144;2024-02-21T13:34:13;10.20;;;3.03;;
27365;SDS011;14837;57.148;-2.144;2024-02-21T13:36:40;7.65;;;2.50;;
27365;SDS011;14837;57.148;-2.144;2024-02-21T13:39:06;7.38;;;2.80;;
27365;SDS011;14837;57.148;-2.144;2024-02-21T13:41:34;10.05;;;2.83;;
27365;SDS011;14837;57.148;-2.144;2024-02-21T13:44:01;6.55;;;3.38;;
27365;SDS011;14837;57.148;-2.144;2024-02-21T13:46:27;10.75;;;2.63;;
27365;SDS011;14837;57.148;-2.144;2024-02-21T13:48:54;4.97;;;3.05;;
27365;SDS011;14837;57.148;-2.144;2024-02-21T13:51:28;4.88;;;2.58;;
27365;SDS011;14837;57.148;-2.144;2024-02-21T13:53:54;6.13;;;2.15;;
27365;SDS011;14837;57.148;-2.144;2024-02-21T13:56:21;7.38;;;2.60;;
27365;SDS011;14837;57.148;-2.144;2024-02-21T13:58:47;9.02;;;3.08;;
27365;SDS011;14837;57.148;-2.144;2024-02-21T14:01:14;10.55;;;3.67;;
27365;SDS011;14837;57.148;-2.144;2024-02-21T14:03:40;5.70;;;2.28;;
27365;SDS011;14837;57.148;-2.144;2024-02-21T14:06:07;7.78;;;2.63;;
27365;SDS011;14837;57.148;-2.144;2024-02-21T14:08:34;6.82;;;3.03;;
27365;SDS011;14837;57.148;-2.144;2024-02-21T14:11:00;8.02;;;2.17;;
27365;SDS011;14837;57.148;-2.144;2024-02-21T14:13:27;6.40;;;2.10;;
27365;SDS011;14837;57.148;-2.144;2024-02-21T14:15:54;5.03;;;3.05;;
27365;SDS011;14837;57.148;-2.144;2024-02-21T14:18:21;5.25;;;2.47;;
27365;SDS011;14837;57.148;-2.144;2024-02-21T14:20:48;7.57;;;2.30;;
27365;SDS011;14837;57.148;-2.144;2024-02-21T14:23:14;5.75;;;2.70;;
27365;SDS011;14837;57.148;-2.144;2024-02-21T14:25:41;5.35;;;2.70;;
27365;SDS011;14837;57.148;-2.144;2024-02-21T14:28:08;4.35;;;2.75;;
27365;SDS011;14837;57.148;-2.144;2024-02-21T14:30:38;4.13;;;1.85;;
27365;SDS011;14837;57.148;-2.144;2024-02-21T14:33:04;7.30;;;3.38;;
27365;SDS011;14837;57.148;-2.144;2024-02-21T14:35:31;7.60;;;2.20;;
27365;SDS011;14837;57.148;-2.144;2024-02-21T14:37:58;6.68;;;2.35;;
27365;SDS011;14837;57.148;-2.144;2024-02-21T14:40:24;7.95;;;2.65;;
27365;SDS011;14837;57.148;-2.144;2024-02-21T14:42:51;3.78;;;2.00;;
27365;SDS011;14837;57.148;-2.144;2024-02-21T14:45:18;8.45;;;2.97;;
27365;SDS011;14837;57.148;-2.144;2024-02-21T14:47:45;6.18;;;2.63;;
27365;SDS011;14837;57.148;-2.144;2024-02-21T14:50:11;7.90;;;2.88;;